Turks and Caicos Islands Weather

[source: ADDS]
METAR
MBPV 310420Z 3106/0106 10010KT 9999 FEW018 FM311200 13015KT 9999 VCSH SCT015 MBGT 310420Z 3106/0106 10010KT 9999 FEW018 FM311200 13015KT 9999 VCSH SCT015 TAF
MBPV 310420Z 3106/0106 10010KT 9999 FEW018 FM311200 13015KT 9999 VCSH SCT015 =
MBGT 310420Z 3106/0106 10010KT 9999 FEW018 FM311200 13015KT 9999 VCSH SCT015 =
SR / SS: 10:32 / 23:06 UTC (MBPV 2015-08-31)
E-mail Print PDF
Weather